createdAt,value
2022-09-23T00:01:19.797Z,8.56
2022-09-23T00:03:48.991Z,8.57
2022-09-23T00:06:20.551Z,8.55
2022-09-23T00:08:51.643Z,8.54
2022-09-23T00:11:22.697Z,8.56
2022-09-23T00:13:53.759Z,8.55
2022-09-23T00:16:25.912Z,8.54
2022-09-23T00:18:53.031Z,8.53
2022-09-23T00:21:22.022Z,8.53
2022-09-23T00:23:49.591Z,8.52
2022-09-23T00:26:20.402Z,8.47
2022-09-23T00:28:49.108Z,8.41
2022-09-23T00:31:25.783Z,8.42
2022-09-23T00:33:56.558Z,8.42
2022-09-23T00:36:25.148Z,8.40
2022-09-23T00:38:52.223Z,8.39
2022-09-23T00:41:19.518Z,8.39
2022-09-23T00:43:55.996Z,8.36
2022-09-23T00:46:27.364Z,8.34
2022-09-23T00:49:07.371Z,8.32
2022-09-23T00:51:41.471Z,8.21
2022-09-23T00:54:09.047Z,8.26
2022-09-23T00:56:39.162Z,8.28
2022-09-23T00:59:09.516Z,8.26
2022-09-23T01:01:37.766Z,8.18
2022-09-23T01:04:06.708Z,8.17
2022-09-23T01:06:33.641Z,8.17
2022-09-23T01:09:00.557Z,8.16
2022-09-23T01:11:56.909Z,8.14
2022-09-23T01:14:48.824Z,8.10
2022-09-23T01:17:57.129Z,8.05
2022-09-23T01:21:04.325Z,8.05
2022-09-23T01:24:14.570Z,8.04
2022-09-23T01:27:15.324Z,8.00
2022-09-23T01:30:06.963Z,7.98
2022-09-23T01:32:53.808Z,7.89
2022-09-23T01:35:52.548Z,7.92
2022-09-23T01:38:43.731Z,7.90
2022-09-23T01:41:52.248Z,7.83
2022-09-23T01:44:34.789Z,7.84
2022-09-23T01:47:17.272Z,7.82
2022-09-23T01:50:01.069Z,7.77
2022-09-23T01:52:37.776Z,7.77
2022-09-23T01:55:18.915Z,7.76
2022-09-23T01:58:07.784Z,7.77
2022-09-23T02:00:41.677Z,7.77
2022-09-23T02:03:17.336Z,7.74
2022-09-23T02:05:58.810Z,7.74
2022-09-23T02:08:47.606Z,7.75
2022-09-23T02:11:16.114Z,7.75
2022-09-23T02:13:59.854Z,7.75
2022-09-23T02:16:51.344Z,7.73
2022-09-23T02:19:36.501Z,7.73
2022-09-23T02:22:13.672Z,7.72
2022-09-23T02:24:40.623Z,7.70
2022-09-23T02:27:59.529Z,7.69
2022-09-23T02:30:38.903Z,7.68
2022-09-23T02:33:15.359Z,7.67
2022-09-23T02:35:56.909Z,7.66
2022-09-23T02:38:31.713Z,7.63
2022-09-23T02:41:14.953Z,7.62
2022-09-23T02:43:59.752Z,7.60
2022-09-23T02:46:28.215Z,7.57
2022-09-23T02:49:19.155Z,7.55
2022-09-23T02:51:46.512Z,7.51
2022-09-23T02:54:24.259Z,7.49
2022-09-23T02:56:52.388Z,7.47
2022-09-23T02:59:22.848Z,7.45
2022-09-23T03:01:49.750Z,7.39
2022-09-23T03:04:40.470Z,7.39
2022-09-23T03:07:23.443Z,7.38
2022-09-23T03:10:24.670Z,7.33
2022-09-23T03:13:29.375Z,7.29
2022-09-23T03:16:11.741Z,7.25
2022-09-23T03:18:50.301Z,7.29
2022-09-23T03:21:39.284Z,7.28
2022-09-23T03:24:09.665Z,7.26
2022-09-23T03:26:39.724Z,7.26
2022-09-23T03:29:09.462Z,7.22
2022-09-23T03:31:39.966Z,7.23
2022-09-23T03:34:20.019Z,7.22
2022-09-23T03:37:00.598Z,7.22
2022-09-23T03:39:36.090Z,7.21
2022-09-23T03:42:16.598Z,7.23
2022-09-23T03:44:46.013Z,7.22
2022-09-23T03:47:15.213Z,7.23
2022-09-23T03:49:51.444Z,7.25
2022-09-23T03:52:21.880Z,7.25
2022-09-23T03:54:49.425Z,7.28
2022-09-23T03:57:16.344Z,7.29
2022-09-23T03:59:43.399Z,7.28
2022-09-23T04:02:11.739Z,7.30
2022-09-23T04:04:40.988Z,7.31
2022-09-23T04:07:08.160Z,7.32
2022-09-23T04:09:36.088Z,7.32
2022-09-23T04:12:04.168Z,7.32
2022-09-23T04:14:31.796Z,7.32
2022-09-23T04:16:58.773Z,7.31
2022-09-23T04:19:25.699Z,7.28
2022-09-23T04:21:53.308Z,7.28
2022-09-23T04:24:20.477Z,7.29
2022-09-23T04:26:52.595Z,7.26
2022-09-23T04:29:20.992Z,7.26
2022-09-23T04:31:48.902Z,7.27
2022-09-23T04:34:17.314Z,7.25
2022-09-23T04:36:48.335Z,7.24
2022-09-23T04:39:16.986Z,7.26
2022-09-23T04:41:45.282Z,7.28
2022-09-23T04:44:13.657Z,7.27
2022-09-23T04:46:47.927Z,7.29
2022-09-23T04:49:16.485Z,7.30
2022-09-23T04:51:43.529Z,7.32
2022-09-23T04:54:12.355Z,7.35
2022-09-23T04:56:39.841Z,7.37
2022-09-23T04:59:07.922Z,7.40
2022-09-23T05:01:36.373Z,7.42
2022-09-23T05:04:07.287Z,7.45
2022-09-23T05:06:35.548Z,7.49
2022-09-23T05:09:05.465Z,7.52
2022-09-23T05:11:32.763Z,7.55
2022-09-23T05:14:00.182Z,7.58
2022-09-23T05:16:27.381Z,7.61
2022-09-23T05:18:54.715Z,7.64
2022-09-23T05:21:28.889Z,7.67
2022-09-23T05:23:59.004Z,7.69
2022-09-23T05:26:29.967Z,7.72
2022-09-23T05:28:58.376Z,7.74
2022-09-23T05:31:28.718Z,7.76
2022-09-23T05:34:00.259Z,7.77
2022-09-23T05:36:33.062Z,7.80
2022-09-23T05:39:04.166Z,7.83
2022-09-23T05:41:31.693Z,7.84
2022-09-23T05:43:59.623Z,7.88
2022-09-23T05:46:29.679Z,7.90
2022-09-23T05:49:02.239Z,7.93
2022-09-23T05:51:31.620Z,7.97
2022-09-23T05:54:00.158Z,7.98
2022-09-23T05:56:28.988Z,8.01
2022-09-23T05:58:58.921Z,8.04
2022-09-23T06:01:28.645Z,8.08
2022-09-23T06:03:57.596Z,8.11
2022-09-23T06:06:32.768Z,8.13
2022-09-23T06:09:00.998Z,8.16
2022-09-23T06:11:31.726Z,8.18
2022-09-23T06:14:03.131Z,8.22
2022-09-23T06:16:33.560Z,8.26
2022-09-23T06:19:05.899Z,8.29
2022-09-23T06:21:38.643Z,8.33
2022-09-23T06:24:07.311Z,8.36
2022-09-23T06:26:36.282Z,8.37
2022-09-23T06:29:09.993Z,8.40
2022-09-23T06:31:37.472Z,8.44
2022-09-23T06:34:11.926Z,8.46
2022-09-23T06:36:44.538Z,8.53
2022-09-23T06:39:13.436Z,8.58
2022-09-23T06:41:40.372Z,8.61
2022-09-23T06:44:07.403Z,8.65
2022-09-23T06:46:34.433Z,8.73
2022-09-23T06:49:02.750Z,8.78
2022-09-23T06:51:29.678Z,8.85
2022-09-23T06:53:56.604Z,8.93
2022-09-23T06:56:23.877Z,8.99
2022-09-23T06:58:52.627Z,9.05
2022-09-23T07:01:19.951Z,9.10
2022-09-23T07:03:48.446Z,9.21
2022-09-23T07:06:17.015Z,9.28
2022-09-23T07:08:46.844Z,9.36
2022-09-23T07:11:14.639Z,9.45
2022-09-23T07:13:42.720Z,9.51
2022-09-23T07:16:11.480Z,9.63
2022-09-23T07:18:39.397Z,9.72
2022-09-23T07:21:14.994Z,9.81
2022-09-23T07:23:47.685Z,9.89
2022-09-23T07:26:16.382Z,10.00
2022-09-23T07:28:43.982Z,10.10
2022-09-23T07:31:15.383Z,10.19
2022-09-23T07:33:44.299Z,10.28
2022-09-23T07:36:20.147Z,10.36
2022-09-23T07:38:47.773Z,10.42
2022-09-23T07:41:18.871Z,10.48
2022-09-23T07:43:47.440Z,10.60
2022-09-23T07:46:18.048Z,10.68
2022-09-23T07:48:46.219Z,10.81
2022-09-23T07:51:17.805Z,10.87
2022-09-23T07:53:49.104Z,10.95
2022-09-23T07:56:18.913Z,11.07
2022-09-23T07:58:59.856Z,11.15
2022-09-23T08:01:39.239Z,11.27
2022-09-23T08:04:27.671Z,11.37
2022-09-23T08:06:58.669Z,11.52
2022-09-23T08:09:31.683Z,11.64
2022-09-23T08:11:58.820Z,11.78
2022-09-23T08:14:25.964Z,11.88
2022-09-23T08:16:54.041Z,12.02
2022-09-23T08:19:21.276Z,12.15
2022-09-23T08:21:50.231Z,12.25
2022-09-23T08:24:19.741Z,12.38
2022-09-23T08:26:48.300Z,12.52
2022-09-23T08:29:17.872Z,12.62
2022-09-23T08:31:45.021Z,12.75
2022-09-23T08:34:13.165Z,12.81
2022-09-23T08:36:40.058Z,12.91
2022-09-23T08:39:07.428Z,12.96
2022-09-23T08:41:57.506Z,13.06
2022-09-23T08:44:42.601Z,13.14
2022-09-23T08:47:31.168Z,13.23
2022-09-23T08:50:05.368Z,13.38
2022-09-23T08:52:49.412Z,13.48
2022-09-23T08:55:18.504Z,13.60
2022-09-23T08:58:24.618Z,13.58
2022-09-23T09:01:13.009Z,13.65
2022-09-23T09:04:44.237Z,13.70
2022-09-23T09:07:38.675Z,13.80
2022-09-23T09:10:26.736Z,13.76
2022-09-23T09:13:20.417Z,13.79
2022-09-23T09:16:05.615Z,13.91
2022-09-23T09:18:35.362Z,14.02
2022-09-23T09:21:15.924Z,14.05
2022-09-23T09:23:57.814Z,14.13
2022-09-23T09:26:35.116Z,14.16
2022-09-23T09:29:36.168Z,14.24
2022-09-23T09:32:22.658Z,14.29
2022-09-23T09:35:00.303Z,14.31
2022-09-23T09:37:44.587Z,14.30
2022-09-23T09:40:13.497Z,14.38
2022-09-23T09:42:43.500Z,14.31
2022-09-23T09:45:36.009Z,14.38
2022-09-23T09:48:20.904Z,14.31
2022-09-23T09:50:51.789Z,14.45
2022-09-23T09:53:35.688Z,14.55
2022-09-23T09:56:10.032Z,14.65
2022-09-23T09:59:10.655Z,14.63
2022-09-23T10:01:38.192Z,14.81
2022-09-23T10:04:24.814Z,15.02
2022-09-23T10:07:07.121Z,15.10
2022-09-23T10:09:37.752Z,15.17
2022-09-23T10:12:18.265Z,15.26
2022-09-23T10:14:51.211Z,15.33
2022-09-23T10:17:27.997Z,15.39
2022-09-23T10:20:08.257Z,15.46
2022-09-23T10:22:42.777Z,15.43
2022-09-23T10:25:27.434Z,15.60
2022-09-23T10:27:54.340Z,15.65
2022-09-23T10:30:27.040Z,15.72
2022-09-23T10:32:56.844Z,15.79
2022-09-23T10:35:28.134Z,15.85
2022-09-23T10:37:59.980Z,16.00
2022-09-23T10:40:58.990Z,15.88
2022-09-23T10:44:04.245Z,15.84
2022-09-23T10:46:46.991Z,15.83
2022-09-23T10:49:34.183Z,15.98
2022-09-23T10:52:25.796Z,16.00
2022-09-23T10:55:21.785Z,15.98
2022-09-23T10:58:24.583Z,15.97
2022-09-23T11:01:25.762Z,15.96
2022-09-23T11:04:22.847Z,15.98
2022-09-23T11:07:26.869Z,15.83
2022-09-23T11:09:59.449Z,15.87
2022-09-23T11:13:06.154Z,15.91
2022-09-23T11:16:13.020Z,16.02
2022-09-23T11:19:01.968Z,16.07
2022-09-23T11:21:51.650Z,16.10
2022-09-23T11:24:36.630Z,16.11
2022-09-23T11:27:25.952Z,16.03
2022-09-23T11:30:13.367Z,15.94
2022-09-23T11:33:13.843Z,16.10
2022-09-23T11:36:25.779Z,16.10
2022-09-23T11:38:55.392Z,15.93
2022-09-23T11:41:32.648Z,16.09
2022-09-23T11:44:15.804Z,16.14
2022-09-23T11:46:49.407Z,16.20
2022-09-23T11:49:59.184Z,16.21
2022-09-23T11:52:35.491Z,16.33
2022-09-23T11:55:27.404Z,16.37
2022-09-23T11:58:25.348Z,16.50
2022-09-23T12:01:10.015Z,16.51
2022-09-23T12:04:14.425Z,16.54
2022-09-23T12:07:08.361Z,16.66
2022-09-23T12:09:57.658Z,16.58
2022-09-23T12:12:47.657Z,16.69
2022-09-23T12:15:58.726Z,16.69
2022-09-23T12:19:06.500Z,16.90
2022-09-23T12:22:17.707Z,16.90
2022-09-23T12:24:59.610Z,16.82
2022-09-23T12:27:33.082Z,16.92
2022-09-23T12:30:06.753Z,16.83
2022-09-23T12:32:34.315Z,16.86
2022-09-23T12:35:02.660Z,16.96
2022-09-23T12:37:37.935Z,16.96
2022-09-23T12:40:21.609Z,16.92
2022-09-23T12:42:49.939Z,16.98
2022-09-23T12:45:32.418Z,16.91
2022-09-23T12:48:01.060Z,16.97
2022-09-23T12:51:02.646Z,17.01
2022-09-23T12:53:35.690Z,16.97
2022-09-23T12:56:25.036Z,17.02
2022-09-23T12:59:07.975Z,17.01
2022-09-23T13:01:38.435Z,17.03
2022-09-23T13:04:24.354Z,16.96
2022-09-23T13:07:06.774Z,16.95
2022-09-23T13:09:41.913Z,16.97
2022-09-23T13:12:24.655Z,16.99
2022-09-23T13:14:56.017Z,17.06
2022-09-23T13:17:40.488Z,17.06
2022-09-23T13:20:19.531Z,17.04
2022-09-23T13:22:49.179Z,17.05
2022-09-23T13:25:26.700Z,17.09
2022-09-23T13:27:57.282Z,17.11
2022-09-23T13:30:26.861Z,17.11
2022-09-23T13:33:10.637Z,17.12
2022-09-23T13:35:50.562Z,17.00
2022-09-23T13:38:26.727Z,17.03
2022-09-23T13:41:03.365Z,17.06
2022-09-23T13:44:00.313Z,17.01
2022-09-23T13:46:39.622Z,17.03
2022-09-23T13:49:12.759Z,16.93
2022-09-23T13:51:39.687Z,16.99
2022-09-23T13:54:06.690Z,17.06
2022-09-23T13:56:35.221Z,16.98
2022-09-23T13:59:29.263Z,17.07
2022-09-23T14:02:15.404Z,17.04
2022-09-23T14:04:42.673Z,17.03
2022-09-23T14:07:14.303Z,17.08
2022-09-23T14:09:48.951Z,17.10
2022-09-23T14:12:21.907Z,17.13
2022-09-23T14:14:51.597Z,17.15
2022-09-23T14:17:22.906Z,17.18
2022-09-23T14:19:50.944Z,17.15
2022-09-23T14:22:29.937Z,17.06
2022-09-23T14:24:58.362Z,17.16
2022-09-23T14:27:33.643Z,17.10
2022-09-23T14:30:04.047Z,17.09
2022-09-23T14:32:32.172Z,17.08
2022-09-23T14:35:05.104Z,17.16
2022-09-23T14:37:56.416Z,17.20
2022-09-23T14:40:33.112Z,17.08
2022-09-23T14:43:17.713Z,17.21
2022-09-23T14:45:50.329Z,17.19
2022-09-23T14:48:26.959Z,17.12
2022-09-23T14:50:59.653Z,17.09
2022-09-23T14:53:46.192Z,17.08
2022-09-23T14:56:23.140Z,17.12
2022-09-23T14:58:59.919Z,17.07
2022-09-23T15:01:32.958Z,17.05
2022-09-23T15:04:11.539Z,16.98
2022-09-23T15:06:42.929Z,17.01
2022-09-23T15:09:26.937Z,16.97
2022-09-23T15:12:00.672Z,16.93
2022-09-23T15:14:41.101Z,16.85
2022-09-23T15:17:30.038Z,16.76
2022-09-23T15:20:02.387Z,16.72
2022-09-23T15:22:29.553Z,16.61
2022-09-23T15:25:21.473Z,16.63
2022-09-23T15:28:08.611Z,16.60
2022-09-23T15:30:37.242Z,16.54
2022-09-23T15:33:05.008Z,16.54
2022-09-23T15:35:32.620Z,16.53
2022-09-23T15:38:02.053Z,16.50
2022-09-23T15:40:35.861Z,16.51
2022-09-23T15:43:20.557Z,16.25
2022-09-23T15:46:13.041Z,16.33
2022-09-23T15:48:58.668Z,16.27
2022-09-23T15:51:27.688Z,16.25
2022-09-23T15:53:55.574Z,16.20
2022-09-23T15:56:23.825Z,16.23
2022-09-23T15:58:51.344Z,16.07
2022-09-23T16:01:30.464Z,16.10
2022-09-23T16:04:00.093Z,16.08
2022-09-23T16:06:27.879Z,16.08
2022-09-23T16:08:55.688Z,16.04
2022-09-23T16:11:31.607Z,15.96
2022-09-23T16:14:00.588Z,16.02
2022-09-23T16:16:28.341Z,15.98
2022-09-23T16:18:55.699Z,15.92
2022-09-23T16:21:26.513Z,15.89
2022-09-23T16:23:55.301Z,15.88
2022-09-23T16:26:29.542Z,15.76
2022-09-23T16:28:58.516Z,15.81
2022-09-23T16:31:29.510Z,15.79
2022-09-23T16:33:57.004Z,15.73
2022-09-23T16:36:28.757Z,15.70
2022-09-23T16:38:56.304Z,15.46
2022-09-23T16:41:25.241Z,15.53
2022-09-23T16:43:53.474Z,15.46
2022-09-23T16:46:21.179Z,15.51
2022-09-23T16:48:52.610Z,15.43
2022-09-23T16:51:38.833Z,15.32
2022-09-23T16:54:10.520Z,15.31
2022-09-23T16:56:44.160Z,15.30
2022-09-23T16:59:15.618Z,15.30
2022-09-23T17:02:02.490Z,15.21
2022-09-23T17:04:29.504Z,15.26
2022-09-23T17:06:56.610Z,15.16
2022-09-23T17:09:27.416Z,15.17
2022-09-23T17:12:27.659Z,15.14
2022-09-23T17:14:54.641Z,14.92
2022-09-23T17:17:22.149Z,14.99
2022-09-23T17:19:49.056Z,14.95
2022-09-23T17:22:15.986Z,14.93
2022-09-23T17:24:42.877Z,14.85
2022-09-23T17:27:09.824Z,14.85
2022-09-23T17:29:36.904Z,14.76
2022-09-23T17:32:04.881Z,14.73
2022-09-23T17:34:33.253Z,14.71
2022-09-23T17:37:00.484Z,14.76
2022-09-23T17:39:27.366Z,14.74
2022-09-23T17:41:57.148Z,14.74
2022-09-23T17:44:24.129Z,14.63
2022-09-23T17:46:51.054Z,14.62
2022-09-23T17:49:18.117Z,14.67
2022-09-23T17:51:45.452Z,14.56
2022-09-23T17:54:14.811Z,14.62
2022-09-23T17:56:45.134Z,14.59
2022-09-23T17:59:12.743Z,14.58
2022-09-23T18:01:39.972Z,14.54
2022-09-23T18:04:07.432Z,14.52
2022-09-23T18:06:37.444Z,14.50
2022-09-23T18:09:08.392Z,14.51
2022-09-23T18:11:38.599Z,14.46
2022-09-23T18:14:13.734Z,14.48
2022-09-23T18:16:42.925Z,14.44
2022-09-23T18:19:22.040Z,14.40
2022-09-23T18:21:52.569Z,14.40
2022-09-23T18:24:35.252Z,14.37
2022-09-23T18:27:02.373Z,14.29
2022-09-23T18:29:29.830Z,14.30
2022-09-23T18:31:56.877Z,14.20
2022-09-23T18:34:24.210Z,14.30
2022-09-23T18:36:51.299Z,14.30
2022-09-23T18:39:18.285Z,14.32
2022-09-23T18:41:45.345Z,14.28
2022-09-23T18:44:12.280Z,14.25
2022-09-23T18:46:39.200Z,14.28
2022-09-23T18:49:24.583Z,14.22
2022-09-23T18:51:55.459Z,14.27
2022-09-23T18:54:24.766Z,14.24
2022-09-23T18:56:54.759Z,14.22
2022-09-23T18:59:26.135Z,14.22
2022-09-23T19:01:56.432Z,14.22
2022-09-23T19:04:25.481Z,14.24
2022-09-23T19:06:53.860Z,14.19
2022-09-23T19:09:20.987Z,14.19
2022-09-23T19:11:51.985Z,14.17
2022-09-23T19:14:18.963Z,14.23
2022-09-23T19:16:45.985Z,14.16
2022-09-23T19:19:12.904Z,14.14
2022-09-23T19:21:39.782Z,14.15
2022-09-23T19:24:08.335Z,14.21
2022-09-23T19:26:39.592Z,14.14
2022-09-23T19:29:14.079Z,14.13
2022-09-23T19:31:41.728Z,14.08
2022-09-23T19:34:17.671Z,14.11
2022-09-23T19:36:47.205Z,14.12
2022-09-23T19:39:26.763Z,14.08
2022-09-23T19:41:55.613Z,14.11
2022-09-23T19:44:24.997Z,14.13
2022-09-23T19:46:56.337Z,14.08
2022-09-23T19:49:25.430Z,14.10
2022-09-23T19:51:55.305Z,14.05
2022-09-23T19:54:23.273Z,14.06
2022-09-23T19:56:50.661Z,14.03
2022-09-23T19:59:19.090Z,14.13
2022-09-23T20:01:47.751Z,14.12
2022-09-23T20:04:15.651Z,14.09
2022-09-23T20:06:42.841Z,13.97
2022-09-23T20:09:09.871Z,14.02
2022-09-23T20:11:36.870Z,14.03
2022-09-23T20:14:05.921Z,13.99
2022-09-23T20:16:35.641Z,14.02
2022-09-23T20:19:04.010Z,14.04
2022-09-23T20:21:31.684Z,14.04
2022-09-23T20:23:58.822Z,13.98
2022-09-23T20:26:44.492Z,14.06
2022-09-23T20:29:11.615Z,14.01
2022-09-23T20:31:40.946Z,13.94
2022-09-23T20:34:10.997Z,14.07
2022-09-23T20:36:40.827Z,14.06
2022-09-23T20:39:09.696Z,14.03
2022-09-23T20:41:38.938Z,14.04
2022-09-23T20:44:10.264Z,14.06
2022-09-23T20:46:37.319Z,13.91
2022-09-23T20:49:04.869Z,14.03
2022-09-23T20:51:34.942Z,13.98
2022-09-23T20:54:02.239Z,13.96
2022-09-23T20:56:29.836Z,13.99
2022-09-23T20:59:04.825Z,14.00
2022-09-23T21:01:36.881Z,13.87
2022-09-23T21:04:05.895Z,13.89
2022-09-23T21:06:35.672Z,13.92
2022-09-23T21:09:03.908Z,13.86
2022-09-23T21:11:31.900Z,13.87
2022-09-23T21:14:00.942Z,13.88
2022-09-23T21:16:28.229Z,13.87
2022-09-23T21:18:55.188Z,13.91
2022-09-23T21:21:22.529Z,13.82
2022-09-23T21:23:50.655Z,13.79
2022-09-23T21:26:23.732Z,13.84
2022-09-23T21:28:58.057Z,13.69
2022-09-23T21:31:34.362Z,13.82
2022-09-23T21:34:05.103Z,13.76
2022-09-23T21:36:36.992Z,13.73
2022-09-23T21:39:05.606Z,13.74
2022-09-23T21:41:33.473Z,13.76
2022-09-23T21:44:02.466Z,13.80
2022-09-23T21:46:29.673Z,13.78
2022-09-23T21:48:58.655Z,13.81
2022-09-23T21:51:36.311Z,13.60
2022-09-23T21:54:03.262Z,13.74
2022-09-23T21:56:35.103Z,13.74
2022-09-23T21:59:02.632Z,13.61
2022-09-23T22:01:36.378Z,13.71
2022-09-23T22:04:10.640Z,13.63
2022-09-23T22:06:40.257Z,13.64
2022-09-23T22:09:12.261Z,13.58
2022-09-23T22:11:59.022Z,13.56
2022-09-23T22:14:27.134Z,13.57
2022-09-23T22:16:58.834Z,13.57
2022-09-23T22:19:42.656Z,13.55
2022-09-23T22:22:15.217Z,13.54
2022-09-23T22:24:47.720Z,13.61
2022-09-23T22:27:17.438Z,13.50
2022-09-23T22:30:02.952Z,13.57
2022-09-23T22:32:54.880Z,13.52
2022-09-23T22:35:22.197Z,13.59
2022-09-23T22:37:49.069Z,13.57
2022-09-23T22:40:16.391Z,13.56
2022-09-23T22:42:43.887Z,13.48
2022-09-23T22:45:12.192Z,13.48
2022-09-23T22:47:43.399Z,13.54
2022-09-23T22:50:11.247Z,13.59
2022-09-23T22:52:38.560Z,13.54
2022-09-23T22:55:07.914Z,13.56
2022-09-23T22:57:35.367Z,13.55
2022-09-23T23:00:05.034Z,13.56
2022-09-23T23:02:32.978Z,13.52
2022-09-23T23:05:00.829Z,13.62
2022-09-23T23:07:27.735Z,13.59
2022-09-23T23:09:54.824Z,13.56
2022-09-23T23:12:21.974Z,13.55
2022-09-23T23:14:49.680Z,13.55
2022-09-23T23:17:17.481Z,13.55
2022-09-23T23:19:44.444Z,13.58
2022-09-23T23:22:11.569Z,13.58
2022-09-23T23:24:38.550Z,13.48
2022-09-23T23:27:05.500Z,13.56
2022-09-23T23:29:32.396Z,13.59
2022-09-23T23:31:59.341Z,13.59
2022-09-23T23:34:26.267Z,13.49
2022-09-23T23:36:57.073Z,13.54
2022-09-23T23:39:25.796Z,13.54
2022-09-23T23:41:54.935Z,13.59
2022-09-23T23:44:24.486Z,13.57
2022-09-23T23:46:52.156Z,13.54
2022-09-23T23:49:19.494Z,13.52
2022-09-23T23:51:47.804Z,13.51
2022-09-23T23:54:15.190Z,13.53
2022-09-23T23:56:42.245Z,13.49
2022-09-23T23:59:09.206Z,13.53
